This is the latest recevied weather packets stored in our database for station/object KA1JKB. If no packets are shown the sender has not sent any weather packets the latest 10 day(s).
| Time | Temp. | Humidity | Pressure | Rain* | Wind** | Luminosity | Snow |
|---|---|---|---|---|---|---|---|
| 1777754531 | 8.33° C | 49% | 1013.6 hPa | 0 mm | - | 123 W/m² | - |
| 1777754228 | 8.33° C | 50% | 1013.7 hPa | 0 mm | - | 133 W/m² | - |
| 1777753926 | 8.89° C | 48% | 1013.9 hPa | 0 mm | - | 127 W/m² | - |
| 1777753620 | 10° C | 41% | 1013.9 hPa | 0 mm | - | 198 W/m² | - |
| 1777753319 | 8.89° C | 48% | 1014 hPa | 0 mm | - | 557 W/m² | - |
| 1777753016 | 8.89° C | 47% | 1014.1 hPa | 0 mm | - | 309 W/m² | - |
| 1777752712 | 8.89° C | 48% | 1013.9 hPa | 0 mm | - | 281 W/m² | - |
| 1777752408 | 9.44° C | 48% | 1014.1 hPa | 0 mm | - | 212 W/m² | - |
| 1777752104 | 8.89° C | 50% | 1014.1 hPa | 0 mm | - | 277 W/m² | - |
| 1777751803 | 8.89° C | 50% | 1014 hPa | 0 mm | - | 299 W/m² | - |
| 1777751499 | 8.89° C | 49% | 1014.1 hPa | 0 mm | - | 301 W/m² | - |
| 1777751196 | 8.89° C | 46% | 1014 hPa | 0 mm | - | 306 W/m² | - |
| 1777750893 | 9.44° C | 46% | 1014.2 hPa | 0 mm | - | 677 W/m² | - |
| 1777750589 | 9.44° C | 44% | 1014.1 hPa | 0 mm | - | 295 W/m² | - |
| 1777750286 | 8.89° C | 48% | 1014.3 hPa | 0 mm | - | 346 W/m² | - |
| 1777749981 | 8.89° C | 49% | 1014.4 hPa | 0 mm | - | 267 W/m² | - |
| 1777749679 | 8.89° C | 47% | 1014.3 hPa | 0 mm | - | 270 W/m² | - |
| 1777749376 | 9.44° C | 44% | 1014.6 hPa | 0 mm | - | 300 W/m² | - |
| 1777749073 | 10° C | 44% | 1014.4 hPa | 0 mm | - | 419 W/m² | - |
| 1777748771 | 8.33° C | 50% | 1014.6 hPa | 0 mm | - | 407 W/m² | - |
| 1777748468 | 8.33° C | 48% | 1014.7 hPa | 0 mm | - | 271 W/m² | - |
| 1777748162 | 8.89° C | 47% | 1014.7 hPa | 0 mm | - | 289 W/m² | - |
| 1777747860 | 8.89° C | 49% | 1014.6 hPa | 0 mm | - | 302 W/m² | - |
| 1777747556 | 8.89° C | 45% | 1014.7 hPa | 0 mm | - | 307 W/m² | - |
| 1777747251 | 10° C | 44% | 1014.8 hPa | 0 mm | - | 333 W/m² | - |
* Rain latest hour (hover to see other rain measurements)
** Current wind speed in m/s (hover to see current wind gust speed)